Time;durP1;ratioP1;P1;durP2;ratioP2;P2;SDS_P1;SDS_P2;PMS_P1;PMS_P2;Temp;Humidity;BMP_temperature;BMP_pressure;BME280_temperature;BME280_humidity;BME280_pressure;Samples;Min_cycle;Max_cycle;Signal;HPM_P1;HPM_P2
2022/11/17 00:01:38;;;;;;;12.10;11.00;;;6.80;99.90;;;;;;5054992;28;20229;-83
2022/11/17 00:04:05;;;;;;;19.45;14.43;;;6.70;99.90;;;;;;5054877;28;20630;-84
2022/11/17 00:06:32;;;;;;;18.85;14.45;;;6.60;99.90;;;;;;5055633;28;20521;-77
2022/11/17 00:08:59;;;;;;;13.52;11.95;;;6.70;99.90;;;;;;5054279;28;20316;-78
2022/11/17 00:14:31;;;;;;;15.13;13.50;;;6.60;99.90;;;;;;5055395;28;20228;-78
2022/11/17 00:16:59;;;;;;;12.02;10.88;;;6.60;99.90;;;;;;5054743;28;20571;-85
2022/11/17 00:22:15;;;;;;;13.90;12.50;;;6.70;99.90;;;;;;5054703;28;20278;-79
2022/11/17 00:24:56;;;;;;;14.20;12.85;;;6.70;99.90;;;;;;5054090;28;20294;-79
2022/11/17 00:27:23;;;;;;;13.80;12.43;;;6.70;99.90;;;;;;5047449;28;20224;-84
2022/11/17 00:29:51;;;;;;;13.27;11.32;;;6.70;99.90;;;;;;5055095;28;20229;-84
2022/11/17 00:35:05;;;;;;;13.82;11.75;;;6.60;99.90;;;;;;5053959;28;20251;-79
2022/11/17 00:37:35;;;;;;;22.42;16.02;;;6.60;99.90;;;;;;5053290;28;20709;-78
2022/11/17 00:40:02;;;;;;;11.25;10.10;;;6.60;99.90;;;;;;5053056;28;20601;-78
2022/11/17 00:42:29;;;;;;;12.32;10.48;;;6.50;99.90;;;;;;5054203;28;20601;-85
2022/11/17 00:44:57;;;;;;;15.07;13.15;;;6.50;99.90;;;;;;5055038;28;20228;-84
2022/11/17 00:47:25;;;;;;;11.88;10.65;;;6.40;99.90;;;;;;5061793;28;20277;-84
2022/11/17 00:49:52;;;;;;;16.98;14.48;;;6.50;99.90;;;;;;5054355;28;20228;-78
2022/11/17 00:52:19;;;;;;;12.98;11.68;;;6.60;99.90;;;;;;5054109;28;20224;-85
2022/11/17 00:54:46;;;;;;;12.80;11.50;;;6.50;99.90;;;;;;5053877;28;20229;-85
2022/11/17 00:57:13;;;;;;;11.65;10.55;;;6.60;99.90;;;;;;5053246;28;20623;-78
2022/11/17 00:59:40;;;;;;;12.65;11.45;;;6.50;99.90;;;;;;5053926;28;20236;-84
2022/11/17 01:02:07;;;;;;;11.90;10.32;;;6.50;99.90;;;;;;5053477;28;20225;-78
2022/11/17 01:04:36;;;;;;;13.02;11.73;;;6.40;99.90;;;;;;5054324;28;20286;-84
2022/11/17 01:07:03;;;;;;;13.25;11.85;;;6.40;99.90;;;;;;5052915;28;20570;-84
2022/11/17 01:12:37;;;;;;;11.20;10.10;;;6.40;99.90;;;;;;5050154;28;20295;-78
2022/11/17 01:15:05;;;;;;;11.70;10.55;;;6.30;99.90;;;;;;5053707;28;20224;-83
2022/11/17 01:17:32;;;;;;;11.93;10.75;;;6.30;99.90;;;;;;5052414;28;20225;-83
2022/11/17 01:20:01;;;;;;;11.93;10.63;;;6.30;99.90;;;;;;5053909;28;20236;-83
2022/11/17 01:22:30;;;;;;;11.82;10.65;;;6.30;99.90;;;;;;5053283;28;20228;-84
2022/11/17 01:24:57;;;;;;;14.63;13.13;;;6.30;99.90;;;;;;5052356;28;20256;-84
2022/11/17 01:27:24;;;;;;;13.57;12.25;;;6.30;99.90;;;;;;5053689;28;20346;-84
2022/11/17 01:29:51;;;;;;;13.90;10.68;;;6.30;99.90;;;;;;5053219;28;20251;-84
2022/11/17 01:32:21;;;;;;;11.55;10.52;;;6.40;99.90;;;;;;5053148;28;20225;-84
2022/11/17 01:34:48;;;;;;;11.55;10.45;;;6.40;99.90;;;;;;5052795;28;20678;-78
2022/11/17 01:37:19;;;;;;;13.80;10.80;;;6.40;99.90;;;;;;5052826;28;20220;-78
2022/11/17 01:39:46;;;;;;;10.90;9.80;;;6.40;99.90;;;;;;5052167;28;20225;-78
2022/11/17 01:42:15;;;;;;;11.68;9.85;;;6.40;99.90;;;;;;5052797;28;20228;-78
2022/11/17 01:45:04;;;;;;;11.50;10.30;;;6.40;99.90;;;;;;5052617;28;20224;-84
2022/11/17 01:47:37;;;;;;;12.02;10.80;;;6.40;99.90;;;;;;5052939;28;20220;-77
2022/11/17 01:50:10;;;;;;;11.70;10.20;;;6.40;99.90;;;;;;5052905;28;20224;-83
2022/11/17 01:52:40;;;;;;;10.70;9.70;;;6.30;99.90;;;;;;5053525;28;20247;-78
2022/11/17 01:55:09;;;;;;;15.85;9.85;;;6.30;99.90;;;;;;5052556;28;20227;-77
2022/11/17 01:57:40;;;;;;;11.18;10.20;;;6.40;99.90;;;;;;5052863;28;20252;-77
2022/11/17 02:00:10;;;;;;;10.63;9.73;;;6.20;99.90;;;;;;5052342;28;20244;-78
2022/11/17 02:02:40;;;;;;;13.05;9.82;;;6.20;99.90;;;;;;5053525;28;20234;-83
2022/11/17 02:05:17;;;;;;;10.48;9.48;;;6.20;99.90;;;;;;5052727;28;20220;-78
2022/11/17 02:07:47;;;;;;;10.05;9.15;;;6.10;99.90;;;;;;5053713;28;20609;-84
2022/11/17 02:10:14;;;;;;;11.13;10.05;;;6.20;99.90;;;;;;5042573;28;20229;-78
2022/11/17 02:12:42;;;;;;;10.43;9.52;;;6.10;99.90;;;;;;5053312;28;20680;-83
2022/11/17 02:18:21;;;;;;;10.35;9.27;;;6.10;99.90;;;;;;5049617;28;20236;-78
2022/11/17 02:20:58;;;;;;;10.20;9.15;;;6.10;99.90;;;;;;5052910;28;20229;-84
2022/11/17 02:24:20;;;;;;;10.15;9.15;;;6.10;99.90;;;;;;5043892;28;20250;-78
2022/11/17 02:27:12;;;;;;;11.55;9.48;;;6.10;99.90;;;;;;5052561;28;20217;-78
2022/11/17 02:29:48;;;;;;;10.05;9.15;;;6.10;99.90;;;;;;5043769;28;20736;-78
2022/11/17 02:32:22;;;;;;;12.73;9.13;;;6.00;99.90;;;;;;5043022;28;20299;-84
2022/11/17 02:34:59;;;;;;;10.80;9.77;;;6.10;99.90;;;;;;5052399;28;20282;-78
2022/11/17 02:37:32;;;;;;;10.70;9.60;;;6.00;99.90;;;;;;5055623;28;20247;-84
2022/11/17 02:40:03;;;;;;;12.00;10.55;;;6.00;99.90;;;;;;5045385;28;20689;-85
2022/11/17 02:45:26;;;;;;;10.68;9.68;;;6.00;99.90;;;;;;5054793;28;20681;-78
2022/11/17 02:50:46;;;;;;;12.05;10.73;;;6.00;99.90;;;;;;5046295;28;20235;-78
2022/11/17 02:53:14;;;;;;;11.27;10.27;;;5.90;99.90;;;;;;5055956;28;20243;-78
2022/11/17 02:55:41;;;;;;;10.98;9.88;;;5.90;99.90;;;;;;5055407;28;20232;-83
2022/11/17 02:58:11;;;;;;;10.27;9.23;;;6.00;99.90;;;;;;5055895;28;20228;-78
2022/11/17 03:00:49;;;;;;;11.70;9.77;;;6.00;99.90;;;;;;5055115;28;20243;-77
2022/11/17 03:03:46;;;;;;;12.38;11.05;;;6.00;99.90;;;;;;5055597;28;20220;-77
2022/11/17 03:06:25;;;;;;;12.18;10.98;;;6.00;99.90;;;;;;5055848;28;20259;-77
2022/11/17 03:09:03;;;;;;;10.32;9.38;;;6.10;99.90;;;;;;5055515;28;20601;-77
2022/11/17 03:11:37;;;;;;;11.15;10.02;;;6.20;99.90;;;;;;5054014;28;20213;-77
2022/11/17 03:14:08;;;;;;;10.93;9.52;;;6.10;99.90;;;;;;5056215;28;20301;-83
2022/11/17 03:16:41;;;;;;;10.52;9.25;;;6.10;99.90;;;;;;5055510;28;20221;-83
2022/11/17 03:22:04;;;;;;;11.68;10.57;;;6.10;99.90;;;;;;5051884;28;20244;-83
2022/11/17 03:24:36;;;;;;;11.35;9.45;;;6.20;99.90;;;;;;5055872;28;20685;-84
2022/11/17 03:27:08;;;;;;;11.80;10.45;;;6.20;99.90;;;;;;5054328;28;20216;-78
2022/11/17 03:29:41;;;;;;;11.02;10.05;;;6.20;99.90;;;;;;5055232;28;20575;-77
2022/11/17 03:32:11;;;;;;;9.40;8.50;;;6.20;99.90;;;;;;5052553;28;20559;-78
2022/11/17 03:34:44;;;;;;;12.07;9.63;;;6.20;99.90;;;;;;5046917;28;20590;-84
2022/11/17 03:37:14;;;;;;;10.45;9.32;;;6.20;99.90;;;;;;5054835;28;20221;-78
2022/11/17 03:39:44;;;;;;;10.65;9.55;;;6.10;99.90;;;;;;5054691;28;20228;-78
2022/11/17 03:42:20;;;;;;;10.82;9.80;;;6.20;99.90;;;;;;5054992;28;20674;-84
2022/11/17 03:44:51;;;;;;;11.38;10.32;;;6.10;99.90;;;;;;5029946;28;20225;-78
2022/11/17 03:47:33;;;;;;;10.45;9.52;;;6.10;99.90;;;;;;5047151;28;20366;-77
2022/11/17 03:50:05;;;;;;;10.63;9.63;;;6.10;99.90;;;;;;5052909;28;20236;-77
2022/11/17 03:52:34;;;;;;;11.05;10.05;;;6.20;99.90;;;;;;5055458;28;20297;-83
2022/11/17 03:55:02;;;;;;;11.52;10.45;;;6.10;99.90;;;;;;5054914;28;20669;-83
2022/11/17 03:57:36;;;;;;;10.75;9.77;;;6.10;99.90;;;;;;5053815;28;20229;-78
2022/11/17 04:00:07;;;;;;;10.43;9.43;;;6.10;99.90;;;;;;5055559;28;20232;-83
2022/11/17 04:02:38;;;;;;;10.05;9.13;;;6.10;99.90;;;;;;5060096;28;20555;-84
2022/11/17 04:05:31;;;;;;;11.27;10.13;;;6.10;99.90;;;;;;5053101;28;20270;-84
2022/11/17 04:07:58;;;;;;;10.70;9.70;;;6.10;99.90;;;;;;5057209;28;20519;-77
2022/11/17 04:10:27;;;;;;;11.52;10.50;;;6.20;99.90;;;;;;5061339;28;20286;-83
2022/11/17 04:15:57;;;;;;;11.77;10.57;;;6.10;99.90;;;;;;5044886;28;20307;-84
2022/11/17 04:18:27;;;;;;;11.70;10.50;;;6.10;99.90;;;;;;5060129;28;20212;-84
2022/11/17 04:20:57;;;;;;;11.52;10.52;;;6.20;99.90;;;;;;5075134;28;20208;-83
2022/11/17 04:23:26;;;;;;;10.82;9.75;;;6.20;99.90;;;;;;5062149;28;20311;-83
2022/11/17 04:28:45;;;;;;;11.57;10.57;;;6.20;99.90;;;;;;5056553;28;20243;-84
2022/11/17 04:31:19;;;;;;;10.65;9.60;;;6.20;99.90;;;;;;5058181;28;20232;-84
2022/11/17 04:33:49;;;;;;;11.40;10.20;;;6.20;99.90;;;;;;5066517;28;20217;-84
2022/11/17 04:36:18;;;;;;;12.40;11.18;;;6.20;99.90;;;;;;5058852;28;20543;-79
2022/11/17 04:39:04;;;;;;;12.05;10.88;;;6.20;99.90;;;;;;5065711;28;20224;-84
2022/11/17 04:44:20;;;;;;;13.13;11.60;;;6.20;99.90;;;;;;5070250;28;20274;-76
2022/11/17 04:46:48;;;;;;;10.95;9.85;;;6.10;99.90;;;;;;5066226;28;20225;-83
2022/11/17 04:49:18;;;;;;;13.35;10.85;;;6.10;99.90;;;;;;5069512;28;20229;-83
2022/11/17 04:51:47;;;;;;;14.05;12.35;;;6.10;99.90;;;;;;5069051;28;20285;-77
2022/11/17 04:54:16;;;;;;;12.57;11.30;;;6.20;99.90;;;;;;5054349;28;20220;-78
2022/11/17 04:56:43;;;;;;;11.70;10.35;;;6.10;99.90;;;;;;5053902;28;20980;-78
2022/11/17 04:59:11;;;;;;;12.80;11.70;;;6.20;99.90;;;;;;5057737;28;20236;-83
2022/11/17 05:01:39;;;;;;;12.45;11.35;;;6.10;99.90;;;;;;5056580;28;20229;-84
2022/11/17 05:04:07;;;;;;;14.18;11.93;;;6.20;99.90;;;;;;5047070;28;20233;-78
2022/11/17 05:06:37;;;;;;;17.08;10.93;;;6.20;99.90;;;;;;5053226;28;20232;-77
2022/11/17 05:09:07;;;;;;;12.77;11.43;;;6.20;99.90;;;;;;5053527;28;20363;-77
2022/11/17 05:14:20;;;;;;;12.18;11.00;;;6.30;99.90;;;;;;5059353;28;20226;-83
2022/11/17 05:17:07;;;;;;;13.00;11.80;;;6.30;99.90;;;;;;5061940;28;20220;-78
2022/11/17 05:19:38;;;;;;;15.52;12.30;;;6.20;99.90;;;;;;5052166;28;20251;-78
2022/11/17 05:25:10;;;;;;;15.82;14.02;;;6.20;99.90;;;;;;5064181;28;20234;-83
2022/11/17 05:27:38;;;;;;;18.05;12.23;;;6.20;99.90;;;;;;5068776;28;20225;-84
2022/11/17 05:30:08;;;;;;;13.45;10.90;;;6.20;99.90;;;;;;5068016;28;20226;-84
2022/11/17 05:32:36;;;;;;;12.45;11.15;;;6.20;99.90;;;;;;5067050;28;20225;-85
2022/11/17 05:35:15;;;;;;;13.15;11.85;;;6.20;99.90;;;;;;5045800;28;20239;-78
2022/11/17 05:37:44;;;;;;;13.50;12.25;;;6.30;99.90;;;;;;5065071;28;20220;-84
2022/11/17 05:40:12;;;;;;;12.90;11.43;;;6.20;99.90;;;;;;5054686;28;20224;-78
2022/11/17 05:42:39;;;;;;;13.75;12.32;;;6.30;99.90;;;;;;5055661;28;20247;-78
2022/11/17 05:45:07;;;;;;;13.65;12.25;;;6.30;99.90;;;;;;5055419;28;20228;-84
2022/11/17 05:47:36;;;;;;;13.30;11.45;;;6.30;99.90;;;;;;5065107;28;20623;-84
2022/11/17 05:50:05;;;;;;;12.77;11.57;;;6.20;99.90;;;;;;5059255;28;20260;-83
2022/11/17 05:52:33;;;;;;;12.27;11.10;;;6.20;99.90;;;;;;5067413;28;20220;-83
2022/11/17 05:55:05;;;;;;;12.50;11.30;;;6.10;99.90;;;;;;5055797;28;20307;-78
2022/11/17 05:57:33;;;;;;;14.45;11.57;;;6.10;99.90;;;;;;5058178;28;20231;-84
2022/11/17 06:00:03;;;;;;;16.65;12.27;;;6.10;99.90;;;;;;5054641;28;20228;-79
2022/11/17 06:02:35;;;;;;;12.45;11.32;;;6.20;99.90;;;;;;5054374;28;20217;-78
2022/11/17 06:05:05;;;;;;;14.32;12.82;;;6.20;99.90;;;;;;5061055;28;20224;-84
2022/11/17 06:07:32;;;;;;;15.00;13.50;;;6.20;99.90;;;;;;5059295;28;20220;-84
2022/11/17 06:10:01;;;;;;;14.55;12.13;;;6.10;99.90;;;;;;5056175;28;20579;-79
2022/11/17 06:12:28;;;;;;;13.75;12.32;;;6.20;99.90;;;;;;5059292;28;20234;-78
2022/11/17 06:15:01;;;;;;;13.52;12.18;;;6.20;99.90;;;;;;5061637;28;20236;-78
2022/11/17 06:17:38;;;;;;;13.07;11.75;;;6.20;99.90;;;;;;5056994;28;20232;-78
2022/11/17 06:20:08;;;;;;;18.27;14.70;;;6.30;99.90;;;;;;5059232;28;20223;-84
2022/11/17 06:22:36;;;;;;;15.20;12.60;;;6.30;99.90;;;;;;5061007;28;20236;-84
2022/11/17 06:25:13;;;;;;;12.65;11.35;;;6.40;99.90;;;;;;5049695;28;20225;-77
2022/11/17 06:27:47;;;;;;;14.63;12.90;;;6.50;99.90;;;;;;5066087;28;20221;-82
2022/11/17 06:30:14;;;;;;;13.27;11.90;;;6.40;99.90;;;;;;5050460;28;20232;-83
2022/11/17 06:32:43;;;;;;;14.40;12.77;;;6.40;99.90;;;;;;5059738;28;20300;-84
2022/11/17 06:35:15;;;;;;;14.70;13.20;;;6.50;99.90;;;;;;5049879;28;20239;-77
2022/11/17 06:37:42;;;;;;;12.68;11.45;;;6.50;99.90;;;;;;5056822;28;20231;-77
2022/11/17 06:40:12;;;;;;;19.25;12.77;;;6.60;99.90;;;;;;5058467;28;20315;-77
2022/11/17 06:45:25;;;;;;;17.80;14.73;;;6.50;99.90;;;;;;5051405;28;20227;-84
2022/11/17 06:47:53;;;;;;;14.77;13.25;;;6.60;99.90;;;;;;5058396;28;20224;-78
2022/11/17 06:50:20;;;;;;;12.77;11.35;;;6.60;99.90;;;;;;5064113;28;20213;-78
2022/11/17 06:52:47;;;;;;;13.13;11.82;;;6.60;99.90;;;;;;5070686;28;20235;-84
2022/11/17 06:55:15;;;;;;;13.75;12.32;;;6.60;99.90;;;;;;5060360;28;20235;-78
2022/11/17 06:57:44;;;;;;;13.18;11.82;;;6.50;99.90;;;;;;5058038;28;20267;-78
2022/11/17 07:00:12;;;;;;;14.00;12.60;;;6.50;99.90;;;;;;5066321;28;20255;-77
2022/11/17 07:02:39;;;;;;;14.40;12.90;;;6.50;99.90;;;;;;5074430;28;20237;-78
2022/11/17 07:05:07;;;;;;;13.00;11.68;;;6.50;99.90;;;;;;5075568;28;20241;-78
2022/11/17 07:07:34;;;;;;;17.40;12.43;;;6.50;99.90;;;;;;5072716;28;20302;-79
2022/11/17 07:10:01;;;;;;;15.65;13.00;;;6.60;99.90;;;;;;5074874;28;20226;-78
2022/11/17 07:12:28;;;;;;;14.30;12.82;;;6.60;99.90;;;;;;5075856;28;20276;-78
2022/11/17 07:14:59;;;;;;;15.00;12.60;;;6.60;99.90;;;;;;5073496;28;20246;-77
2022/11/17 07:17:27;;;;;;;16.10;12.30;;;6.60;99.90;;;;;;5078216;28;20213;-77
2022/11/17 07:20:02;;;;;;;12.48;11.23;;;6.60;99.90;;;;;;5074547;28;20229;-77
2022/11/17 07:22:30;;;;;;;13.30;11.95;;;6.60;99.90;;;;;;5071751;28;20228;-77
2022/11/17 07:24:56;;;;;;;13.30;11.80;;;6.50;99.90;;;;;;5075988;28;20224;-78
2022/11/17 07:27:24;;;;;;;13.85;11.93;;;6.50;99.90;;;;;;5072679;28;20228;-79
2022/11/17 07:29:51;;;;;;;14.85;11.38;;;6.50;99.90;;;;;;5072180;28;20248;-78
2022/11/17 07:32:20;;;;;;;17.33;12.32;;;6.40;99.90;;;;;;5071434;28;20303;-78
2022/11/17 07:34:54;;;;;;;12.68;11.15;;;6.50;99.90;;;;;;5065409;28;20220;-78
2022/11/17 07:37:22;;;;;;;12.35;10.00;;;6.60;99.90;;;;;;5062192;28;20250;-79
2022/11/17 07:39:49;;;;;;;12.93;11.63;;;6.60;99.90;;;;;;5072544;28;20228;-84
2022/11/17 07:42:16;;;;;;;12.43;10.25;;;6.60;99.90;;;;;;5073398;28;20236;-77
2022/11/17 07:44:43;;;;;;;12.10;11.00;;;6.60;99.90;;;;;;5074310;28;20213;-77
2022/11/17 07:47:10;;;;;;;12.85;11.55;;;6.60;99.90;;;;;;5074723;28;20209;-83
2022/11/17 07:49:38;;;;;;;11.93;10.70;;;6.60;99.90;;;;;;5073802;28;20251;-78
2022/11/17 07:52:05;;;;;;;12.32;11.02;;;6.60;99.90;;;;;;5072636;28;20239;-78
2022/11/17 07:54:33;;;;;;;10.93;9.85;;;6.60;99.90;;;;;;5070407;28;20262;-78
2022/11/17 07:57:00;;;;;;;10.70;9.70;;;6.60;99.90;;;;;;5068078;28;20228;-78
2022/11/17 07:59:27;;;;;;;12.07;10.88;;;6.60;99.90;;;;;;5068753;28;20229;-84
2022/11/17 08:01:56;;;;;;;12.02;10.75;;;6.60;99.90;;;;;;5074911;28;20224;-82
2022/11/17 08:04:23;;;;;;;15.80;11.32;;;6.50;99.90;;;;;;5069643;28;20234;-78
2022/11/17 08:06:52;;;;;;;10.80;9.70;;;6.50;99.90;;;;;;5061709;28;20285;-77
2022/11/17 08:09:19;;;;;;;12.00;10.80;;;6.50;99.90;;;;;;5058811;28;20243;-77
2022/11/17 08:11:46;;;;;;;10.25;9.25;;;6.60;99.90;;;;;;5057981;28;20274;-78
2022/11/17 08:14:14;;;;;;;11.07;9.98;;;6.70;99.90;;;;;;5055856;28;20565;-78
2022/11/17 08:16:41;;;;;;;12.30;11.00;;;6.60;99.90;;;;;;5055359;28;20221;-78
2022/11/17 08:19:10;;;;;;;11.98;10.77;;;6.60;99.90;;;;;;5056779;28;20323;-79
2022/11/17 08:21:39;;;;;;;11.75;9.95;;;6.60;99.90;;;;;;5058133;28;20251;-78
2022/11/17 08:24:08;;;;;;;11.85;10.15;;;6.60;99.90;;;;;;5057084;28;20224;-84
2022/11/17 08:26:52;;;;;;;13.32;10.25;;;6.60;99.90;;;;;;5026583;28;20241;-78
2022/11/17 08:29:19;;;;;;;11.40;10.20;;;6.60;99.90;;;;;;5052375;28;20303;-83
2022/11/17 08:31:46;;;;;;;10.68;9.55;;;6.70;99.90;;;;;;5055207;28;20282;-77
2022/11/17 08:34:14;;;;;;;10.30;9.30;;;6.60;99.90;;;;;;5053501;28;20352;-78
2022/11/17 08:36:41;;;;;;;12.90;11.50;;;6.60;99.90;;;;;;5053895;28;20263;-77
2022/11/17 08:39:10;;;;;;;11.35;10.30;;;6.60;99.90;;;;;;5053908;28;20229;-78
2022/11/17 08:41:37;;;;;;;11.65;9.98;;;6.70;99.90;;;;;;5054367;28;20217;-83
2022/11/17 08:44:05;;;;;;;13.70;11.45;;;6.70;99.90;;;;;;5054924;28;20224;-77
2022/11/17 08:46:33;;;;;;;12.30;10.35;;;6.70;99.90;;;;;;5052671;28;20235;-77
2022/11/17 08:49:06;;;;;;;11.65;10.57;;;6.80;99.90;;;;;;5053955;28;20248;-84
2022/11/17 08:51:33;;;;;;;13.18;11.45;;;6.90;99.90;;;;;;5055336;28;20539;-83
2022/11/17 08:54:03;;;;;;;13.27;11.32;;;6.80;99.90;;;;;;5056062;28;20220;-84
2022/11/17 08:56:32;;;;;;;15.32;12.60;;;6.90;99.90;;;;;;5054423;28;20217;-84
2022/11/17 08:58:59;;;;;;;18.63;11.35;;;6.90;99.90;;;;;;5055024;28;20232;-84
2022/11/17 09:01:26;;;;;;;12.32;10.30;;;6.90;99.90;;;;;;5054534;28;20224;-84
2022/11/17 09:03:53;;;;;;;19.92;13.20;;;6.90;99.90;;;;;;5055138;28;20221;-84
2022/11/17 09:06:21;;;;;;;15.82;10.90;;;6.90;99.90;;;;;;5053203;28;20231;-78
2022/11/17 09:08:48;;;;;;;12.45;11.15;;;6.80;99.90;;;;;;5054251;28;20224;-83
2022/11/17 09:11:16;;;;;;;13.60;11.23;;;6.90;99.90;;;;;;5054059;28;20224;-83
2022/11/17 09:13:45;;;;;;;14.43;11.80;;;7.00;99.90;;;;;;5055143;28;20224;-77
2022/11/17 09:16:13;;;;;;;11.90;10.60;;;7.00;99.90;;;;;;5053198;28;20701;-84
2022/11/17 09:18:40;;;;;;;15.38;12.55;;;6.90;99.90;;;;;;5052414;28;20220;-83
2022/11/17 09:21:10;;;;;;;12.77;11.13;;;6.80;99.90;;;;;;5054659;28;20221;-77
2022/11/17 09:26:18;;;;;;;15.55;13.05;;;6.80;99.90;;;;;;5040385;28;20226;-78
2022/11/17 09:28:47;;;;;;;17.35;13.68;;;6.70;99.90;;;;;;5052991;28;20224;-83
2022/11/17 09:31:19;;;;;;;14.70;11.75;;;6.70;99.90;;;;;;5053573;28;20315;-78
2022/11/17 09:33:46;;;;;;;13.75;12.18;;;6.70;99.90;;;;;;5053003;28;20577;-78
2022/11/17 09:36:16;;;;;;;12.93;11.52;;;6.70;99.90;;;;;;5053096;28;20216;-84
2022/11/17 09:38:49;;;;;;;15.82;11.80;;;6.80;99.90;;;;;;5053630;28;20235;-83
2022/11/17 09:41:25;;;;;;;17.58;11.55;;;6.80;99.90;;;;;;5056308;28;20247;-78
2022/11/17 09:44:02;;;;;;;12.55;10.90;;;6.80;99.90;;;;;;5053414;28;20216;-78
2022/11/17 09:46:41;;;;;;;14.32;12.93;;;6.80;99.90;;;;;;5042599;28;20247;-79
2022/11/17 09:49:13;;;;;;;15.70;13.15;;;6.90;99.90;;;;;;5054942;28;20244;-78
2022/11/17 09:51:46;;;;;;;13.60;12.18;;;7.00;99.90;;;;;;5042134;28;20221;-78
2022/11/17 09:54:20;;;;;;;15.20;13.23;;;7.00;99.90;;;;;;5053816;28;20232;-84
2022/11/17 09:56:49;;;;;;;15.20;13.32;;;6.90;99.90;;;;;;5053586;28;20224;-84
2022/11/17 09:59:21;;;;;;;13.45;12.07;;;7.00;99.90;;;;;;5052929;28;20225;-84
2022/11/17 10:01:48;;;;;;;22.55;12.05;;;7.00;99.90;;;;;;5053392;28;20274;-82
2022/11/17 10:04:18;;;;;;;16.13;12.13;;;7.00;99.90;;;;;;5053739;28;20227;-83
2022/11/17 10:06:49;;;;;;;14.77;11.73;;;7.00;99.90;;;;;;5052812;28;20216;-83
2022/11/17 10:09:35;;;;;;;18.83;13.43;;;7.10;99.90;;;;;;5053633;28;20228;-83
2022/11/17 10:12:18;;;;;;;16.65;12.40;;;7.00;99.90;;;;;;5054569;28;20224;-82
2022/11/17 10:14:47;;;;;;;14.15;12.10;;;7.00;99.90;;;;;;5056204;28;20303;-83
2022/11/17 10:17:17;;;;;;;14.48;12.18;;;7.00;99.90;;;;;;5054375;28;20220;-76
2022/11/17 10:19:45;;;;;;;15.85;11.73;;;6.90;99.90;;;;;;5053406;28;20543;-77
2022/11/17 10:22:33;;;;;;;15.82;11.65;;;6.80;99.90;;;;;;5052805;28;20542;-78
2022/11/17 10:25:01;;;;;;;19.23;10.57;;;6.90;99.90;;;;;;5052411;28;20221;-77
2022/11/17 10:27:30;;;;;;;18.92;11.70;;;6.90;99.90;;;;;;5054303;28;20217;-77
2022/11/17 10:30:01;;;;;;;17.88;12.15;;;7.00;99.90;;;;;;5052522;28;20244;-77
2022/11/17 10:32:29;;;;;;;12.75;11.27;;;7.00;99.90;;;;;;5052915;28;20224;-77
2022/11/17 10:34:58;;;;;;;14.88;12.80;;;7.10;99.90;;;;;;5053314;28;20355;-83
2022/11/17 10:37:35;;;;;;;12.52;11.20;;;7.20;99.90;;;;;;5054220;28;20248;-84
2022/11/17 10:40:25;;;;;;;14.55;12.20;;;7.30;99.90;;;;;;5052866;28;20283;-84
2022/11/17 10:43:03;;;;;;;19.77;12.60;;;7.30;99.90;;;;;;5046914;28;20356;-78
2022/11/17 10:45:32;;;;;;;15.50;11.48;;;7.40;99.90;;;;;;5053242;28;20221;-78
2022/11/17 10:48:12;;;;;;;13.40;12.00;;;7.30;99.90;;;;;;5051587;28;20224;-79
2022/11/17 10:50:52;;;;;;;15.23;13.55;;;7.30;99.90;;;;;;5052836;28;20228;-83
2022/11/17 10:53:29;;;;;;;13.45;12.10;;;7.30;99.90;;;;;;5052762;28;20243;-84
2022/11/17 10:56:06;;;;;;;12.25;10.85;;;7.30;99.90;;;;;;5041038;28;20308;-84
2022/11/17 10:58:58;;;;;;;19.40;10.82;;;7.30;99.90;;;;;;5054991;28;20248;-83
2022/11/17 11:01:32;;;;;;;12.30;11.00;;;7.30;99.90;;;;;;5056250;28;20307;-78
2022/11/17 11:03:59;;;;;;;12.40;11.10;;;7.30;99.90;;;;;;5055857;28;20220;-78
2022/11/17 11:06:28;;;;;;;14.30;12.15;;;7.30;99.90;;;;;;5055507;28;20217;-84
2022/11/17 11:08:59;;;;;;;13.15;11.35;;;7.30;99.90;;;;;;5056878;28;20229;-84
2022/11/17 11:11:43;;;;;;;15.77;12.20;;;7.30;99.90;;;;;;5044382;28;20212;-78
2022/11/17 11:14:19;;;;;;;16.33;10.63;;;7.40;99.90;;;;;;5055393;28;20221;-84
2022/11/17 11:16:50;;;;;;;13.75;10.52;;;7.40;99.90;;;;;;5055156;28;21196;-78
2022/11/17 11:19:19;;;;;;;15.55;12.80;;;7.40;99.90;;;;;;5054316;28;20233;-78
2022/11/17 11:22:21;;;;;;;15.18;11.02;;;7.40;99.90;;;;;;5054261;28;20256;-78
2022/11/17 11:25:16;;;;;;;14.35;10.73;;;7.30;99.90;;;;;;5056523;28;20228;-78
2022/11/17 11:28:00;;;;;;;15.27;12.10;;;7.30;99.90;;;;;;5056253;28;20229;-78
2022/11/17 11:30:28;;;;;;;11.48;10.38;;;7.20;99.90;;;;;;5054342;28;20225;-78
2022/11/17 11:33:07;;;;;;;16.98;11.02;;;7.10;99.90;;;;;;5054625;28;20229;-78
2022/11/17 11:35:50;;;;;;;11.30;10.20;;;7.20;99.90;;;;;;5054529;28;20235;-84
2022/11/17 11:38:37;;;;;;;12.05;10.43;;;7.20;99.90;;;;;;5056343;28;20252;-77
2022/11/17 11:41:19;;;;;;;13.57;10.63;;;7.30;99.90;;;;;;5054949;28;20647;-83
2022/11/17 11:43:56;;;;;;;11.25;10.15;;;7.30;99.90;;;;;;5056396;28;20216;-83
2022/11/17 11:46:38;;;;;;;10.77;9.35;;;7.30;99.90;;;;;;5056069;28;20243;-83
2022/11/17 11:49:16;;;;;;;13.13;10.30;;;7.30;99.90;;;;;;5054450;28;20236;-83
2022/11/17 11:51:45;;;;;;;11.27;10.07;;;7.20;99.90;;;;;;5054984;28;20519;-77
2022/11/17 11:54:16;;;;;;;10.80;9.77;;;7.20;99.90;;;;;;5054384;28;20252;-83
2022/11/17 11:56:46;;;;;;;11.07;9.98;;;7.20;99.90;;;;;;5056141;28;20295;-82
2022/11/17 11:59:17;;;;;;;10.88;9.77;;;7.20;99.90;;;;;;5055407;28;20235;-83
2022/11/17 12:01:51;;;;;;;13.00;11.43;;;7.20;99.90;;;;;;5058124;28;20274;-83
2022/11/17 12:04:32;;;;;;;13.25;10.15;;;7.30;99.90;;;;;;5054935;28;20326;-83
2022/11/17 12:07:09;;;;;;;12.23;10.57;;;7.20;99.90;;;;;;5043761;28;20331;-83
2022/11/17 12:09:59;;;;;;;12.95;11.10;;;7.20;99.90;;;;;;5055010;28;20228;-84
2022/11/17 12:12:31;;;;;;;12.00;9.95;;;7.20;99.90;;;;;;5055132;28;20251;-77
2022/11/17 12:15:11;;;;;;;11.52;10.32;;;7.30;99.90;;;;;;5043319;28;20217;-77
2022/11/17 12:18:00;;;;;;;14.65;11.73;;;7.20;99.90;;;;;;5053282;28;20221;-83
2022/11/17 12:21:03;;;;;;;13.07;11.20;;;7.10;99.90;;;;;;5043798;28;20628;-83
2022/11/17 12:23:47;;;;;;;12.00;9.60;;;7.20;99.90;;;;;;5054775;28;20303;-84
2022/11/17 12:26:26;;;;;;;13.35;10.85;;;7.20;99.90;;;;;;5068644;28;20255;-83
2022/11/17 12:29:31;;;;;;;11.18;9.70;;;7.20;99.90;;;;;;5068192;28;20237;-83
2022/11/17 12:32:03;;;;;;;15.40;12.15;;;7.20;99.90;;;;;;5066428;28;20673;-79
2022/11/17 12:34:34;;;;;;;12.45;11.15;;;7.20;99.90;;;;;;5063011;28;20268;-84
2022/11/17 12:37:29;;;;;;;11.88;10.10;;;7.20;99.90;;;;;;5064041;28;20231;-82
2022/11/17 12:40:06;;;;;;;12.10;10.80;;;7.20;99.90;;;;;;5065786;28;20244;-83
2022/11/17 12:42:35;;;;;;;22.17;11.65;;;7.20;99.90;;;;;;5068127;28;20239;-83
2022/11/17 12:45:13;;;;;;;12.13;10.57;;;7.20;99.90;;;;;;5071286;28;20220;-82
2022/11/17 12:47:43;;;;;;;18.85;11.52;;;7.20;99.90;;;;;;5063852;28;20236;-84
2022/11/17 12:50:45;;;;;;;12.20;11.02;;;7.10;99.90;;;;;;5073639;28;20231;-83
2022/11/17 12:53:46;;;;;;;12.10;10.85;;;7.10;99.90;;;;;;5031435;28;20220;-78
2022/11/17 12:56:50;;;;;;;11.18;9.80;;;7.20;99.90;;;;;;5053875;28;20523;-79
2022/11/17 12:59:56;;;;;;;12.10;10.48;;;7.20;99.90;;;;;;5055103;28;20235;-78
2022/11/17 13:02:38;;;;;;;11.40;10.13;;;7.30;99.90;;;;;;5036516;28;20224;-83
2022/11/17 13:05:13;;;;;;;16.17;10.50;;;7.30;99.90;;;;;;5058185;28;20654;-81
2022/11/17 13:07:40;;;;;;;12.80;11.50;;;7.30;99.90;;;;;;5056662;28;20228;-78
2022/11/17 13:10:26;;;;;;;12.68;10.55;;;7.30;99.90;;;;;;5055731;28;20274;-84
2022/11/17 13:13:09;;;;;;;14.23;10.63;;;7.30;99.90;;;;;;5053614;28;20290;-78
2022/11/17 13:15:37;;;;;;;11.90;10.50;;;7.20;99.90;;;;;;5055150;28;20236;-83
2022/11/17 13:18:10;;;;;;;11.48;10.23;;;7.30;99.90;;;;;;5057017;28;20221;-83
2022/11/17 13:20:39;;;;;;;12.15;10.90;;;7.30;99.90;;;;;;5055887;28;20224;-83
2022/11/17 13:23:14;;;;;;;17.25;10.98;;;7.40;99.90;;;;;;5056100;28;20271;-78
2022/11/17 13:25:43;;;;;;;12.95;10.60;;;7.40;99.90;;;;;;5052910;28;20223;-78
2022/11/17 13:28:34;;;;;;;14.68;10.38;;;7.40;99.90;;;;;;5050716;28;20248;-85
2022/11/17 13:31:13;;;;;;;13.10;11.20;;;7.50;99.90;;;;;;5046940;28;20216;-83
2022/11/17 13:33:47;;;;;;;11.98;9.80;;;7.50;99.90;;;;;;5041150;28;20311;-84
2022/11/17 13:36:23;;;;;;;12.32;9.30;;;7.50;99.90;;;;;;5053054;28;20224;-84
2022/11/17 13:38:56;;;;;;;14.82;11.77;;;7.50;99.90;;;;;;5053812;28;20239;-84
2022/11/17 13:41:33;;;;;;;10.80;9.73;;;7.50;99.90;;;;;;5052778;28;20236;-76
2022/11/17 13:44:01;;;;;;;11.63;10.52;;;7.50;99.90;;;;;;5052747;28;20216;-77
2022/11/17 13:46:28;;;;;;;12.02;9.88;;;7.40;99.90;;;;;;5053694;28;20217;-83
2022/11/17 13:48:56;;;;;;;12.45;10.82;;;7.40;99.90;;;;;;5053539;28;20233;-83